Time;durP1;ratioP1;P1;durP2;ratioP2;P2;SDS_P1;SDS_P2;PMS_P1;PMS_P2;Temp;Humidity;BMP_temperature;BMP_pressure;BME280_temperature;BME280_humidity;BME280_pressure;Samples;Min_cycle;Max_cycle;Signal;HPM_P1;HPM_P2
2022/01/06 00:00:12;;;;;;;112.00;50.10;;;;;;;2.99;100.00;98405.78;4923713;29;20272;-86
2022/01/06 00:02:39;;;;;;;103.83;47.93;;;;;;;1.34;100.00;98150.69;4926340;29;20184;-85
2022/01/06 00:05:06;;;;;;;101.70;47.50;;;;;;;4.06;100.00;98617.06;4940857;29;20445;-84
2022/01/06 00:07:32;;;;;;;108.93;42.07;;;;;;;3.21;100.00;98535.38;4940551;29;20406;-85
2022/01/06 00:09:58;;;;;;;120.00;53.53;;;;;;;2.88;100.00;98494.28;4923458;29;20425;-84
2022/01/06 00:12:31;;;;;;;110.47;48.33;;;;;;;0.94;100.00;98170.72;4941118;29;20476;-85
2022/01/06 00:25:50;;;;;;;111.17;47.70;;;;;;;3.27;100.00;98560.75;4936608;29;20413;-85
2022/01/06 00:28:16;;;;;;;103.37;41.37;;;;;;;3.48;100.00;98561.97;4938046;29;20425;-85
2022/01/06 00:30:42;;;;;;;108.60;47.07;;;;;;;1.40;100.00;98226.66;4940484;29;20492;-85
2022/01/06 00:33:08;;;;;;;102.90;48.13;;;;;;;3.69;100.00;98653.28;4938428;29;20449;-85
2022/01/06 00:35:36;;;;;;;105.77;47.03;;;;;;;3.74;100.00;98646.91;4922067;29;20779;-84
2022/01/06 00:38:01;;;;;;;102.20;48.33;;;;;;;2.88;100.00;98497.63;4937748;29;20482;-85
2022/01/06 00:40:27;;;;;;;99.97;45.73;;;;;;;2.94;100.00;98509.63;4937177;29;20846;-84
2022/01/06 00:42:53;;;;;;;104.40;44.90;;;;;;;2.86;100.00;98486.69;4937000;29;20233;-85
2022/01/06 00:45:18;;;;;;;97.83;43.60;;;;;;;3.75;100.00;98637.75;4936959;29;20463;-85
2022/01/06 00:47:45;;;;;;;102.37;46.37;;;;;;;2.52;100.00;98425.53;4936787;29;20286;-86
2022/01/06 00:50:10;;;;;;;97.57;42.33;;;;;;;3.28;100.00;98568.31;4934901;29;20192;-84
2022/01/06 00:52:36;;;;;;;102.70;43.60;;;;;;;3.75;100.00;98635.25;4936718;29;20406;-85
2022/01/06 00:55:03;;;;;;;98.60;44.60;;;;;;;3.59;100.00;98626.00;4921466;29;20232;-85
2022/01/06 00:57:28;;;;;;;97.47;44.70;;;;;;;1.25;100.00;98257.28;4937346;29;20182;-84
2022/01/06 00:59:53;;;;;;;101.93;45.43;;;;;;;1.45;100.00;98244.41;4954882;29;20905;-85
2022/01/06 01:02:19;;;;;;;96.07;43.60;;;;;;;3.11;100.00;98530.59;4941332;29;20201;-85
2022/01/06 01:04:44;;;;;;;102.60;45.57;;;;;;;3.42;100.00;98551.63;4940975;29;20176;-84
2022/01/06 01:07:10;;;;;;;96.30;44.57;;;;;;;3.39;100.00;98556.44;4961852;28;20557;-85
2022/01/06 01:09:35;;;;;;;95.50;43.87;;;;;;;2.48;100.00;98410.25;4946607;29;20212;-85
2022/01/06 01:12:03;;;;;;;97.43;44.10;;;;;;;0.40;100.00;98062.78;4947295;29;20198;-85
2022/01/06 01:14:32;;;;;;;93.67;42.77;;;;;;;3.66;100.00;98594.66;4964935;29;20179;-86
2022/01/06 01:17:02;;;;;;;94.37;42.50;;;;;;;3.81;100.00;98615.59;4964187;29;20405;-86
2022/01/06 01:19:30;;;;;;;91.43;40.10;;;;;;;3.52;100.00;98558.84;4964418;29;20451;-85
2022/01/06 01:21:56;;;;;;;91.43;41.57;;;;;;;3.76;100.00;98602.81;4946496;29;20439;-86
2022/01/06 01:24:23;;;;;;;89.33;42.07;;;;;;;3.17;100.00;98479.31;4963529;29;20411;-85
2022/01/06 01:26:50;;;;;;;95.80;43.93;;;;;;;3.85;100.00;98600.81;4964226;29;20477;-86
2022/01/06 01:29:18;;;;;;;98.13;45.40;;;;;;;2.60;100.00;98376.03;4964300;29;20436;-86
2022/01/06 01:31:49;;;;;;;88.53;42.27;;;;;;;3.88;100.00;98595.97;4961299;29;20903;-86
2022/01/06 01:34:22;;;;;;;86.77;40.13;;;;;;;3.80;100.00;98592.19;4962032;29;20422;-85
2022/01/06 01:36:48;;;;;;;88.07;42.20;;;;;;;3.40;100.00;98536.53;4962322;29;20860;-85
2022/01/06 01:39:14;;;;;;;85.63;40.37;;;;;;;3.35;100.00;98524.53;4962857;29;20444;-86
2022/01/06 01:41:39;;;;;;;91.30;41.43;;;;;;;3.71;100.00;98596.66;4961892;29;20225;-86
2022/01/06 01:44:12;;;;;;;83.20;40.50;;;;;;;3.67;100.00;98588.91;4962160;29;20435;-86
2022/01/06 01:46:43;;;;;;;93.77;40.47;;;;;;;1.94;100.00;98325.50;4962277;29;20244;-86
2022/01/06 01:49:16;;;;;;;90.50;42.30;;;;;;;3.05;100.00;98538.59;4944086;29;20964;-85
2022/01/06 01:51:43;;;;;;;90.63;41.43;;;;;;;3.18;100.00;98542.69;4961016;29;20416;-85
2022/01/06 01:54:08;;;;;;;92.60;42.50;;;;;;;3.50;100.00;98596.31;4965706;29;21083;-84
2022/01/06 01:56:34;;;;;;;96.50;43.63;;;;;;;2.40;100.00;98442.28;4967670;29;20432;-85
2022/01/06 01:58:59;;;;;;;93.70;42.37;;;;;;;1.62;100.00;98293.66;4943453;29;20212;-84
2022/01/06 02:01:26;;;;;;;93.43;44.20;;;;;;;1.12;100.00;98206.72;4959951;29;20165;-85
2022/01/06 02:03:52;;;;;;;100.77;45.10;;;;;;;3.41;100.00;98592.41;4960083;29;20224;-85
2022/01/06 02:06:20;;;;;;;103.80;44.63;;;;;;;3.48;100.00;98612.00;4958114;29;20471;-86
2022/01/06 02:08:48;;;;;;;99.60;43.73;;;;;;;3.49;100.00;98593.69;4961316;29;20179;-85
2022/01/06 02:11:13;;;;;;;88.43;42.93;;;;;;;3.48;100.00;98594.50;4964541;29;20404;-86
2022/01/06 02:13:53;;;;;;;97.07;44.90;;;;;;;3.24;100.00;98573.91;4962482;28;20936;-85
2022/01/06 02:16:21;;;;;;;92.90;42.40;;;;;;;1.38;100.00;98255.63;4960883;29;20172;-85
2022/01/06 02:18:47;;;;;;;97.23;44.60;;;;;;;2.62;100.00;98474.38;4959603;28;20502;-85
2022/01/06 02:21:13;;;;;;;98.20;45.50;;;;;;;1.61;100.00;98345.16;4960743;29;20808;-85
2022/01/06 02:23:38;;;;;;;106.60;49.60;;;;;;;1.49;100.00;98287.06;4946293;29;20471;-85
2022/01/06 02:26:04;;;;;;;104.17;49.40;;;;;;;3.38;100.00;98608.09;4959458;29;20248;-85
2022/01/06 02:28:29;;;;;;;169.27;75.03;;;;;;;2.73;100.00;98529.22;4959148;29;20634;-86
2022/01/06 02:30:57;;;;;;;251.80;105.33;;;;;;;2.58;100.00;98483.34;4960109;29;20597;-85
2022/01/06 02:33:23;;;;;;;152.33;67.77;;;;;;;1.96;100.00;98386.34;4964575;29;20165;-85
2022/01/06 02:35:49;;;;;;;117.43;51.07;;;;;;;0.50;100.00;98157.16;4963208;29;20587;-85
2022/01/06 02:38:16;;;;;;;121.60;52.47;;;;;;;1.64;100.00;98327.91;4963077;29;20949;-86
2022/01/06 02:40:41;;;;;;;116.30;50.97;;;;;;;0.90;100.00;98267.59;4945122;29;20184;-84
2022/01/06 02:43:07;;;;;;;114.57;49.63;;;;;;;3.01;100.00;98600.84;4960993;29;20999;-85
2022/01/06 02:45:35;;;;;;;102.87;48.87;;;;;;;1.89;100.00;98391.75;4962488;29;20294;-85
2022/01/06 02:48:05;;;;;;;108.80;48.63;;;;;;;3.17;100.00;98594.34;4944756;29;20440;-85
2022/01/06 02:50:32;;;;;;;101.10;43.07;;;;;;;3.16;100.00;98572.59;4963257;29;20400;-86
2022/01/06 02:52:58;;;;;;;103.60;48.03;;;;;;;0.77;100.00;98163.84;4963110;29;20500;-85
2022/01/06 02:55:23;;;;;;;106.40;47.50;;;;;;;0.45;100.00;98104.63;4961751;29;20460;-85
2022/01/06 02:57:48;;;;;;;105.97;49.67;;;;;;;1.25;100.00;98230.75;4961953;29;20194;-86
2022/01/06 03:00:16;;;;;;;104.20;47.37;;;;;;;3.20;100.00;98578.66;4961490;29;20207;-85
2022/01/06 03:02:43;;;;;;;105.60;49.43;;;;;;;2.76;100.00;98506.91;4959195;29;20188;-86
2022/01/06 03:05:13;;;;;;;107.20;47.87;;;;;;;3.28;100.00;98583.34;4960346;29;20490;-85
2022/01/06 03:07:39;;;;;;;104.70;49.73;;;;;;;3.42;100.00;98601.63;4962670;29;20416;-85
2022/01/06 03:10:08;;;;;;;120.53;54.73;;;;;;;3.32;100.00;98610.25;4962170;29;20762;-86
2022/01/06 03:12:39;;;;;;;127.00;58.37;;;;;;;3.42;100.00;98609.16;4962998;29;20221;-86
2022/01/06 03:15:09;;;;;;;145.90;61.10;;;;;;;2.69;100.00;98517.31;4962297;29;20397;-85
2022/01/06 03:17:36;;;;;;;107.33;50.73;;;;;;;2.87;100.00;98558.41;4961286;29;20435;-85
2022/01/06 03:20:04;;;;;;;111.20;51.03;;;;;;;2.47;100.00;98518.44;4964411;29;20499;-86
2022/01/06 03:22:30;;;;;;;107.00;48.50;;;;;;;-0.18;100.00;98076.59;4943727;29;20454;-85
2022/01/06 03:24:55;;;;;;;109.33;49.23;;;;;;;2.87;100.00;98603.38;4960775;29;20754;-85
2022/01/06 03:27:21;;;;;;;113.67;46.80;;;;;;;0.40;100.00;98210.50;4959527;29;20171;-86
2022/01/06 03:29:49;;;;;;;99.57;45.87;;;;;;;-0.46;100.00;98119.47;4958565;28;20183;-85
2022/01/06 03:32:15;;;;;;;102.30;47.87;;;;;;;2.65;100.00;98619.47;4959739;29;20208;-84
2022/01/06 03:34:40;;;;;;;104.47;47.87;;;;;;;-0.79;100.00;98070.91;4961601;29;20426;-85
2022/01/06 03:37:06;;;;;;;106.40;47.57;;;;;;;2.24;100.00;98610.28;4959573;29;20184;-84
2022/01/06 03:39:32;;;;;;;108.03;49.07;;;;;;;1.89;100.00;98563.91;4959017;29;20233;-84
2022/01/06 03:41:58;;;;;;;105.67;46.73;;;;;;;2.33;100.00;98590.84;4958796;29;20248;-85
2022/01/06 03:44:25;;;;;;;109.17;47.27;;;;;;;1.79;100.00;98473.50;4958098;29;20180;-83
2022/01/06 03:46:50;;;;;;;98.10;43.70;;;;;;;1.96;100.00;98526.06;4958213;29;20917;-85
2022/01/06 03:49:16;;;;;;;95.53;45.50;;;;;;;2.49;100.00;98617.66;4959216;29;20411;-85
2022/01/06 03:51:41;;;;;;;100.60;47.00;;;;;;;2.51;100.00;98623.63;4960891;29;20172;-85
2022/01/06 03:54:07;;;;;;;99.77;46.50;;;;;;;-0.01;100.00;98234.34;4958067;29;20247;-84
2022/01/06 03:56:33;;;;;;;101.47;45.60;;;;;;;-0.11;100.00;98168.22;4959638;29;20199;-85
2022/01/06 03:58:58;;;;;;;105.97;46.33;;;;;;;1.93;100.00;98511.78;4958378;29;20735;-85
2022/01/06 04:01:24;;;;;;;101.77;47.07;;;;;;;2.37;100.00;98615.25;4957896;29;20698;-84
2022/01/06 04:03:49;;;;;;;102.27;45.53;;;;;;;1.95;100.00;98524.38;4958495;29;20180;-84
2022/01/06 04:06:15;;;;;;;97.80;46.10;;;;;;;2.63;100.00;98629.38;4959405;29;20184;-85
2022/01/06 04:08:41;;;;;;;101.00;46.17;;;;;;;0.81;100.00;98327.66;4958487;29;20234;-84
2022/01/06 04:11:07;;;;;;;99.63;45.07;;;;;;;1.59;100.00;98476.34;4959792;29;20180;-84
2022/01/06 04:13:34;;;;;;;108.50;45.67;;;;;;;1.85;100.00;98507.06;4958926;29;20401;-84
2022/01/06 04:16:02;;;;;;;102.53;48.43;;;;;;;1.78;100.00;98546.63;4942457;29;20650;-85
2022/01/06 04:18:28;;;;;;;107.17;48.13;;;;;;;2.32;100.00;98628.22;4941925;29;20428;-84
2022/01/06 04:20:53;;;;;;;94.63;42.47;;;;;;;0.80;100.00;98382.31;4960376;29;20514;-85
2022/01/06 04:23:19;;;;;;;105.30;47.20;;;;;;;0.52;100.00;98348.16;4961271;29;20432;-84
2022/01/06 04:25:44;;;;;;;108.73;48.47;;;;;;;0.27;100.00;98305.06;4959520;29;20172;-84
2022/01/06 04:28:10;;;;;;;95.57;44.63;;;;;;;-0.62;100.00;98190.53;4959730;29;20200;-85
2022/01/06 04:30:35;;;;;;;97.80;41.70;;;;;;;2.23;100.00;98647.63;4942821;29;20184;-85
2022/01/06 04:33:01;;;;;;;102.70;46.17;;;;;;;1.29;100.00;98473.56;4942800;29;20211;-85
2022/01/06 04:35:26;;;;;;;99.53;45.50;;;;;;;2.33;100.00;98648.28;4971465;29;20219;-85
2022/01/06 04:37:51;;;;;;;98.43;45.47;;;;;;;1.45;100.00;98514.53;4946379;29;20283;-85
2022/01/06 04:40:17;;;;;;;101.50;45.30;;;;;;;-0.73;100.00;98179.00;4956522;29;20274;-85
2022/01/06 04:42:42;;;;;;;96.50;44.27;;;;;;;1.86;100.00;98589.53;4959602;28;20299;-85
2022/01/06 04:45:08;;;;;;;99.50;44.07;;;;;;;1.38;100.00;98511.53;4943211;29;20208;-84
2022/01/06 04:47:34;;;;;;;100.27;44.50;;;;;;;-0.96;100.00;98112.03;4960704;29;20199;-87
2022/01/06 04:49:59;;;;;;;96.73;42.77;;;;;;;0.34;100.00;98322.09;4961119;29;20408;-84
2022/01/06 04:52:25;;;;;;;93.57;40.90;;;;;;;-0.87;100.00;98152.38;4946506;29;20242;-86
2022/01/06 04:54:51;;;;;;;114.77;51.57;;;;;;;-0.33;100.00;98226.41;4964386;29;20642;-83
2022/01/06 04:57:17;;;;;;;92.73;43.97;;;;;;;2.17;100.00;98643.09;4949382;29;20623;-85
2022/01/06 04:59:43;;;;;;;87.33;42.87;;;;;;;2.29;100.00;98638.91;4967991;29;21152;-84
2022/01/06 05:02:08;;;;;;;94.23;43.37;;;;;;;-0.36;100.00;98164.94;4953893;29;20599;-85
2022/01/06 05:04:34;;;;;;;96.73;43.60;;;;;;;2.43;100.00;98662.22;4966402;29;20692;-85
2022/01/06 05:06:59;;;;;;;86.77;43.33;;;;;;;1.44;100.00;98514.44;4967405;29;20267;-83
2022/01/06 05:09:24;;;;;;;84.03;37.87;;;;;;;0.78;100.00;98413.75;4972098;29;20156;-86
2022/01/06 05:11:50;;;;;;;85.70;41.67;;;;;;;0.21;100.00;98287.22;4956647;29;20220;-85
2022/01/06 05:14:18;;;;;;;77.97;35.37;;;;;;;2.19;100.00;98664.06;4957269;29;20173;-85
2022/01/06 05:16:44;;;;;;;87.37;39.50;;;;;;;0.07;100.00;98287.94;4972756;29;20177;-83
2022/01/06 05:19:12;;;;;;;94.87;40.20;;;;;;;2.11;100.00;98672.69;4977069;29;20519;-85
2022/01/06 05:21:38;;;;;;;108.00;44.87;;;;;;;-0.89;100.00;98202.72;4974152;29;20180;-85
2022/01/06 05:24:12;;;;;;;71.07;30.83;;;;;;;-2.46;100.00;98013.94;4968326;29;20499;-85
2022/01/06 05:26:39;;;;;;;75.13;33.40;;;;;;;-1.03;100.00;98173.59;4966227;29;20194;-86
2022/01/06 05:29:11;;;;;;;77.33;35.93;;;;;;;1.62;100.00;98623.72;4967253;29;20416;-86
2022/01/06 05:31:37;;;;;;;114.27;53.30;;;;;;;0.56;100.00;98441.34;4968490;29;20431;-86
2022/01/06 05:34:04;;;;;;;65.60;30.53;;;;;;;1.55;100.00;98631.56;4950883;29;20441;-85
2022/01/06 05:36:32;;;;;;;77.10;29.80;;;;;;;1.75;100.00;98683.63;4970723;29;20539;-84
2022/01/06 05:38:58;;;;;;;56.63;26.10;;;;;;;0.99;100.00;98549.69;4971094;29;20452;-85
2022/01/06 05:41:24;;;;;;;54.93;25.50;;;;;;;1.45;100.00;98604.31;4966518;29;20491;-84
2022/01/06 05:44:12;;;;;;;58.23;26.63;;;;;;;1.99;100.00;98690.97;4968007;29;20252;-83
2022/01/06 05:46:39;;;;;;;68.27;32.93;;;;;;;1.89;100.00;98689.53;4931524;29;20215;-87
2022/01/06 05:49:06;;;;;;;69.53;34.93;;;;;;;1.81;100.00;98703.13;4912909;29;20813;-85
2022/01/06 05:51:31;;;;;;;98.13;40.70;;;;;;;0.20;100.00;98434.78;4927468;29;20493;-84
2022/01/06 05:53:56;;;;;;;104.87;45.43;;;;;;;-0.41;100.00;98304.56;4911525;29;20433;-86
2022/01/06 05:56:22;;;;;;;97.90;43.43;;;;;;;1.31;100.00;98596.66;4929003;29;20198;-87
2022/01/06 05:58:48;;;;;;;113.83;47.87;;;;;;;1.80;100.00;98703.88;4911220;29;20325;-85
2022/01/06 06:01:13;;;;;;;153.77;55.23;;;;;;;0.09;100.00;98388.41;4906865;29;20277;-85
2022/01/06 06:03:39;;;;;;;148.33;58.50;;;;;;;1.34;100.00;98535.44;4910278;29;20169;-86
2022/01/06 06:06:04;;;;;;;135.97;57.90;;;;;;;1.71;100.00;98574.44;4923416;29;20201;-86
2022/01/06 06:08:30;;;;;;;134.23;55.60;;;;;;;2.04;100.00;98639.72;4909048;29;20267;-85
2022/01/06 06:10:57;;;;;;;124.37;54.03;;;;;;;2.51;100.00;98705.16;4905746;29;20595;-85
2022/01/06 06:13:22;;;;;;;141.23;51.07;;;;;;;0.82;100.00;98450.56;4921544;29;20253;-85
2022/01/06 06:15:48;;;;;;;107.07;47.67;;;;;;;-0.05;100.00;98280.53;4920688;29;20547;-84
2022/01/06 06:18:13;;;;;;;99.73;42.47;;;;;;;-0.42;100.00;98241.56;4952523;29;20244;-85
2022/01/06 06:21:05;;;;;;;98.63;46.10;;;;;;;0.76;100.00;98382.91;4964942;29;20203;-85
2022/01/06 06:23:30;;;;;;;78.80;38.07;;;;;;;-0.12;100.00;98245.22;4897209;29;20258;-85
2022/01/06 06:25:57;;;;;;;74.73;35.10;;;;;;;2.70;100.00;98733.03;4904742;29;20535;-85
2022/01/06 06:28:22;;;;;;;77.20;33.57;;;;;;;-0.12;100.00;98247.69;4907038;29;20195;-85
2022/01/06 06:30:48;;;;;;;93.33;43.20;;;;;;;2.38;100.00;98623.63;4881642;29;20508;-85
2022/01/06 06:33:15;;;;;;;108.93;49.70;;;;;;;2.19;100.00;98588.28;4905681;29;20187;-86
2022/01/06 06:35:41;;;;;;;88.43;40.10;;;;;;;1.25;100.00;98462.53;4891715;29;20187;-85
2022/01/06 06:38:06;;;;;;;81.60;39.67;;;;;;;1.31;100.00;98462.06;4875048;29;20435;-85
2022/01/06 06:40:32;;;;;;;77.90;34.33;;;;;;;0.76;100.00;98378.78;4873267;29;20219;-85
2022/01/06 06:42:57;;;;;;;79.20;37.27;;;;;;;-0.26;100.00;98181.28;4875882;29;20238;-85
2022/01/06 06:45:24;;;;;;;73.53;36.03;;;;;;;2.80;100.00;98701.22;4888990;29;20194;-84
2022/01/06 06:47:51;;;;;;;73.90;39.20;;;;;;;2.65;100.00;98650.31;4869730;29;20218;-84
2022/01/06 06:50:17;;;;;;;95.70;44.13;;;;;;;2.67;100.00;98617.91;4866307;29;20439;-84
2022/01/06 06:52:45;;;;;;;82.47;38.93;;;;;;;2.76;100.00;98639.34;4881331;29;20411;-86
2022/01/06 06:55:12;;;;;;;69.80;32.60;;;;;;;3.02;100.00;98713.44;4957013;29;20462;-84
2022/01/06 06:57:37;;;;;;;74.03;36.67;;;;;;;3.21;100.00;98715.41;4957974;29;20428;-84
2022/01/06 07:00:05;;;;;;;134.43;60.07;;;;;;;3.40;100.00;98700.75;4958609;29;20454;-84
2022/01/06 07:02:31;;;;;;;136.20;63.40;;;;;;;3.84;100.00;98739.28;4944881;29;20180;-84
2022/01/06 07:04:57;;;;;;;124.13;57.17;;;;;;;3.37;100.00;98668.91;4964674;28;20471;-85
2022/01/06 07:07:23;;;;;;;133.27;62.47;;;;;;;3.49;100.00;98674.63;4960662;29;20412;-84
2022/01/06 07:09:50;;;;;;;207.83;92.40;;;;;;;3.82;100.00;98734.97;4945375;29;20177;-84
2022/01/06 07:12:16;;;;;;;162.27;72.20;;;;;;;3.30;100.00;98678.44;4965917;29;20433;-84
2022/01/06 07:14:42;;;;;;;154.90;70.30;;;;;;;1.66;100.00;98376.22;4946616;29;20424;-85
2022/01/06 07:17:07;;;;;;;163.97;74.97;;;;;;;3.70;100.00;98681.69;4961495;29;20196;-84
2022/01/06 07:19:34;;;;;;;399.73;183.67;;;;;;;3.50;100.00;98665.50;4961035;29;20270;-84
2022/01/06 07:21:59;;;;;;;143.27;69.47;;;;;;;2.26;100.00;98413.13;4962906;29;20192;-84
2022/01/06 07:24:25;;;;;;;101.13;51.17;;;;;;;4.29;100.00;98755.22;4960671;29;20409;-85
2022/01/06 07:26:51;;;;;;;94.50;44.83;;;;;;;2.23;100.00;98397.97;4961656;29;20481;-85
2022/01/06 07:29:16;;;;;;;63.00;32.10;;;;;;;4.16;100.00;98748.66;4961226;29;20220;-86
2022/01/06 07:31:42;;;;;;;70.53;36.33;;;;;;;4.15;100.00;98782.84;4957879;29;20271;-85
2022/01/06 07:34:07;;;;;;;87.83;43.53;;;;;;;2.59;100.00;98530.03;4962759;29;20184;-86
2022/01/06 07:36:33;;;;;;;63.70;33.60;;;;;;;1.23;100.00;98314.53;4962217;29;20174;-88
2022/01/06 07:39:00;;;;;;;71.37;35.50;;;;;;;1.63;100.00;98402.59;4962265;29;20292;-86
2022/01/06 07:41:25;;;;;;;122.83;52.40;;;;;;;4.04;100.00;98772.97;4943580;29;20237;-84
2022/01/06 07:43:51;;;;;;;67.47;33.60;;;;;;;0.75;100.00;98249.19;4960757;29;20434;-85
2022/01/06 07:46:23;;;;;;;107.87;55.57;;;;;;;1.49;100.00;98329.44;4948230;29;20247;-84
2022/01/06 07:48:56;;;;;;;212.27;100.37;;;;;;;1.94;100.00;98337.97;4960885;29;20420;-85
2022/01/06 07:51:25;;;;;;;261.13;122.40;;;;;;;1.93;100.00;98328.75;4965764;29;20468;-83
2022/01/06 07:53:52;;;;;;;168.93;79.77;;;;;;;4.63;100.00;98756.38;4964407;28;20768;-84
2022/01/06 07:56:17;;;;;;;148.33;67.57;;;;;;;4.52;100.00;98709.78;4961016;29;20419;-85
2022/01/06 07:58:44;;;;;;;166.73;87.40;;;;;;;3.01;100.00;98421.72;4952358;29;20464;-84
2022/01/06 08:01:11;;;;;;;72.93;36.93;;;;;;;5.35;100.00;98772.97;4954450;29;20161;-85
2022/01/06 08:03:36;;;;;;;89.63;43.87;;;;;;;4.90;100.00;98764.56;4942586;29;20410;-84
2022/01/06 08:06:02;;;;;;;96.33;48.43;;;;;;;5.49;100.00;98775.31;4939431;29;20447;-85
2022/01/06 08:08:28;;;;;;;137.37;72.83;;;;;;;4.71;100.00;98682.47;4938902;29;20193;-85
2022/01/06 08:10:53;;;;;;;144.37;80.00;;;;;;;4.36;100.00;98531.84;4921991;29;20223;-86
2022/01/06 08:13:43;;;;;;;66.67;33.20;;;;;;;5.53;100.00;98775.56;4948706;29;20761;-85
2022/01/06 08:16:09;;;;;;;82.40;43.93;;;;;;;5.54;100.00;98788.97;4901184;29;20621;-86
2022/01/06 08:18:35;;;;;;;186.40;88.10;;;;;;;3.75;100.00;98490.97;4896991;29;20435;-85
2022/01/06 08:21:00;;;;;;;66.20;32.37;;;;;;;2.83;100.00;98356.56;4896809;29;20226;-84
2022/01/06 08:23:26;;;;;;;79.73;39.00;;;;;;;5.87;100.00;98784.13;4896638;29;20605;-86
2022/01/06 08:25:52;;;;;;;63.20;33.83;;;;;;;5.22;100.00;98730.41;4896777;29;20189;-88
2022/01/06 08:28:17;;;;;;;72.90;38.53;;;;;;;4.08;100.00;98415.19;4898893;29;20761;-85
2022/01/06 08:30:43;;;;;;;129.40;63.77;;;;;;;3.88;99.07;98380.69;4897770;29;20203;-85
2022/01/06 08:33:09;;;;;;;158.33;75.93;;;;;;;5.36;98.58;98555.47;4896666;29;20182;-87
2022/01/06 08:35:36;;;;;;;85.73;45.80;;;;;;;5.79;100.00;98671.47;4881049;29;20676;-86
2022/01/06 08:38:02;;;;;;;99.50;51.87;;;;;;;6.32;99.04;98717.72;4881057;29;20205;-85
2022/01/06 08:40:28;;;;;;;143.23;77.20;;;;;;;4.20;100.00;98351.47;4913963;29;20473;-85
2022/01/06 08:42:54;;;;;;;136.37;69.20;;;;;;;6.38;100.00;98697.03;4914945;29;20229;-86
2022/01/06 08:45:20;;;;;;;112.03;56.10;;;;;;;6.30;99.62;98686.63;4915753;29;20273;-86
2022/01/06 08:47:46;;;;;;;122.63;61.07;;;;;;;6.95;100.00;98805.47;4927732;29;20916;-86
2022/01/06 08:50:13;;;;;;;125.53;55.97;;;;;;;6.62;100.00;98707.44;4945940;29;20179;-86
2022/01/06 08:52:39;;;;;;;130.90;62.63;;;;;;;7.38;100.00;98798.28;4951609;29;20420;-84
2022/01/06 08:55:07;;;;;;;100.17;47.13;;;;;;;7.20;100.00;98799.94;4926130;29;20525;-85
2022/01/06 08:57:32;;;;;;;127.57;50.80;;;;;;;7.49;98.93;98806.34;4939922;29;20898;-86
2022/01/06 09:00:00;;;;;;;96.70;45.17;;;;;;;6.25;99.28;98600.09;4937537;29;20524;-84
2022/01/06 09:02:26;;;;;;;80.03;38.73;;;;;;;6.69;97.02;98634.84;4937733;29;20204;-84
2022/01/06 09:04:52;;;;;;;114.40;48.30;;;;;;;7.62;94.99;98784.28;4937765;29;20960;-85
2022/01/06 09:07:17;;;;;;;166.23;67.67;;;;;;;6.53;94.82;98579.63;4936966;29;20467;-86
2022/01/06 09:09:43;;;;;;;118.03;54.40;;;;;;;7.50;94.14;98703.16;4943983;29;20197;-85
2022/01/06 09:12:16;;;;;;;112.73;46.50;;;;;;;7.39;94.92;98726.97;4938159;29;20267;-85
2022/01/06 09:14:42;;;;;;;93.37;42.10;;;;;;;8.25;94.52;98808.06;4955366;29;20172;-83
2022/01/06 09:17:07;;;;;;;78.90;36.93;;;;;;;5.58;94.26;98402.63;4954771;29;20184;-84
2022/01/06 09:19:33;;;;;;;61.33;30.43;;;;;;;8.11;93.42;98814.16;4948165;29;20224;-84
2022/01/06 09:21:58;;;;;;;51.23;26.43;;;;;;;7.47;93.69;98771.00;4919191;29;20642;-84
2022/01/06 09:24:23;;;;;;;52.13;28.60;;;;;;;7.56;94.65;98715.16;4936874;29;20626;-87
2022/01/06 09:26:49;;;;;;;65.77;37.90;;;;;;;8.19;92.88;98749.81;4936926;29;20190;-87
2022/01/06 09:29:14;;;;;;;66.83;38.83;;;;;;;7.09;91.64;98555.34;4938581;29;20740;-85
2022/01/06 09:31:41;;;;;;;51.10;26.90;;;;;;;7.90;91.52;98687.25;4923714;29;20185;-85
2022/01/06 09:34:08;;;;;;;45.63;26.37;;;;;;;5.52;92.38;98304.47;4941069;29;20187;-85
2022/01/06 09:36:37;;;;;;;44.00;25.43;;;;;;;6.68;90.96;98457.09;4941485;29;20265;-86
2022/01/06 09:39:03;;;;;;;69.17;39.67;;;;;;;7.27;89.67;98497.38;4939044;29;20301;-88
2022/01/06 09:41:30;;;;;;;71.43;38.00;;;;;;;7.89;88.01;98541.88;4941392;29;20323;-86
2022/01/06 09:43:56;;;;;;;52.53;30.23;;;;;;;9.29;87.89;98793.88;4942265;29;20181;-86
2022/01/06 09:46:23;;;;;;;380.23;165.73;;;;;;;8.59;89.10;98725.50;4933731;29;20255;-86
2022/01/06 09:48:48;;;;;;;140.67;60.97;;;;;;;7.22;87.38;98389.75;4961189;29;20165;-84
2022/01/06 09:51:15;;;;;;;57.17;32.07;;;;;;;6.28;88.46;98288.63;4944909;29;20212;-86
2022/01/06 09:53:43;;;;;;;70.67;39.50;;;;;;;10.17;86.44;98790.50;4943505;29;20221;-84
2022/01/06 09:56:09;;;;;;;45.00;26.77;;;;;;;8.40;84.67;98433.03;4925241;29;20673;-85
2022/01/06 09:58:34;;;;;;;52.50;28.67;;;;;;;8.86;81.98;98367.38;4942005;29;20529;-86
2022/01/06 10:01:00;;;;;;;88.23;44.20;;;;;;;10.22;81.03;98581.56;4942696;29;20173;-85
2022/01/06 10:03:44;;;;;;;75.30;41.10;;;;;;;11.72;80.38;98781.22;4923672;29;20189;-86
2022/01/06 10:06:15;;;;;;;67.83;37.53;;;;;;;10.60;78.91;98562.53;4925287;29;20196;-87
2022/01/06 10:08:43;;;;;;;50.53;28.03;;;;;;;11.08;80.23;98728.56;4947421;29;20182;-84
2022/01/06 10:11:14;;;;;;;61.53;33.57;;;;;;;10.47;81.19;98618.63;4965600;29;20211;-84
2022/01/06 10:13:43;;;;;;;77.23;42.07;;;;;;;11.70;80.81;98768.47;4953065;29;20275;-85
2022/01/06 10:16:13;;;;;;;84.37;43.07;;;;;;;11.25;80.46;98714.75;4959835;29;20161;-86
2022/01/06 10:18:56;;;;;;;58.83;34.40;;;;;;;12.02;79.21;98756.72;4961489;29;20168;-87
2022/01/06 10:21:22;;;;;;;55.40;31.60;;;;;;;12.05;79.04;98761.88;4952772;29;20192;-84
2022/01/06 10:24:11;;;;;;;53.73;31.40;;;;;;;12.20;78.36;98766.50;4949700;29;20185;-84
2022/01/06 10:26:38;;;;;;;47.27;25.77;;;;;;;11.97;78.00;98730.38;4944174;29;20584;-85
2022/01/06 10:29:08;;;;;;;42.30;24.67;;;;;;;11.73;78.50;98689.97;4945246;29;20158;-85
2022/01/06 10:31:33;;;;;;;39.77;24.70;;;;;;;10.52;77.46;98447.56;4944745;29;20170;-86
2022/01/06 10:34:05;;;;;;;39.33;23.07;;;;;;;12.47;77.44;98769.75;4942366;29;20615;-84
2022/01/06 10:36:32;;;;;;;44.77;24.83;;;;;;;11.86;78.36;98698.78;4951382;29;20180;-84
2022/01/06 10:39:00;;;;;;;40.13;22.87;;;;;;;10.46;79.56;98549.47;4960231;28;20562;-85
2022/01/06 10:41:27;;;;;;;39.40;22.47;;;;;;;11.97;79.52;98765.88;4959784;29;20238;-83
2022/01/06 10:43:58;;;;;;;61.90;36.30;;;;;;;10.05;80.13;98472.28;4944622;29;20187;-87
2022/01/06 10:46:37;;;;;;;44.63;25.93;;;;;;;11.87;80.25;98761.34;4961915;29;20216;-88
2022/01/06 10:49:15;;;;;;;52.13;26.83;;;;;;;11.95;79.97;98769.19;4960414;28;20236;-85
2022/01/06 10:51:53;;;;;;;47.23;26.63;;;;;;;11.81;79.90;98756.13;4966691;29;20195;-86
2022/01/06 10:54:22;;;;;;;49.17;27.10;;;;;;;11.92;79.65;98754.72;4966630;29;20222;-86
2022/01/06 10:57:03;;;;;;;46.30;26.70;;;;;;;10.33;79.14;98471.47;4958355;29;20180;-87
2022/01/06 10:59:33;;;;;;;50.17;27.23;;;;;;;11.97;78.47;98732.03;4927552;29;20272;-85
2022/01/06 11:01:59;;;;;;;58.10;32.53;;;;;;;12.30;77.55;98759.19;4946244;29;20185;-84
2022/01/06 11:04:26;;;;;;;62.90;34.93;;;;;;;10.50;77.04;98446.66;4931190;29;20157;-85
2022/01/06 11:06:52;;;;;;;60.17;33.20;;;;;;;11.01;77.94;98508.03;4961722;29;20181;-84
2022/01/06 11:09:18;;;;;;;44.43;25.50;;;;;;;11.89;76.39;98668.44;4947569;29;20276;-84
2022/01/06 11:14:12;;;;;;;61.97;33.50;;;;;;;11.26;77.57;98543.34;4963256;29;20184;-87
2022/01/06 11:16:38;;;;;;;72.93;36.60;;;;;;;10.43;76.67;98379.88;4963383;29;20169;-86
2022/01/06 11:19:03;;;;;;;52.63;30.60;;;;;;;10.92;76.99;98454.59;4962549;29;20232;-85
2022/01/06 11:21:48;;;;;;;58.00;30.40;;;;;;;12.62;76.85;98731.19;4959641;29;20562;-85
2022/01/06 11:24:20;;;;;;;69.67;37.07;;;;;;;12.86;75.67;98734.34;4947393;29;20220;-84
2022/01/06 11:27:10;;;;;;;60.97;33.33;;;;;;;12.81;75.52;98738.44;4953121;29;20180;-85